Market Bosworth, United Kingdom
Current Conditions -  °F | °C
As of 2:50 PM on Saturday 25 Oct 2014 (Local Time) from EGNX Reporting Station
Broken Clouds Broken Clouds  
Wind Chill: 13°   Ceiling: 2600
Heat Index: 13°   Visibility: 6mi
Dew Point:   Wind: 17mph
Humidity: 77%   Direction: 220°SW
Pressure: 29.97"   Gusts: NA
Location:  52.62°N, 1.4°W
Report Text: EGNX 251350Z 22015KT 9999 FEW020 BKN026 13/09 Q1015
Loading
Personal Weather Stations






























Interactive Weather Map
Tropical Storm Tracking
New forecast layout! Learn more

10-Day Weather Forecast

Advertisements
Track Severe Weather on mobile